WIF1XT ENTC-ENKR
Flight info
| Callsign | WIF1XT |
|---|---|
| Flight time | 0h 26m |
| Altitude | 23000 |
| Route | ERPUG DCT TINOS DCT VADLA |
| Aircraft | DH8B/M-SDFGR/S |
Departure
| Time | 2026-04-20 07:35 |
|---|---|
| Airport | Tromsø Airport (ENTC) |
Arrival
| Time | 2026-04-20 08:02 |
|---|---|
| Airport | Kirkenes Airport, Høybuktmoen (ENKR) |
| Time | Latitude | Longitude | Altitude | Speed | Heading |
|---|---|---|---|---|---|
| 2026-04-20 07:20 | 69.68048 | 18.90963 | 33 ft | 0 kts | 283° |
| 2026-04-20 07:22 | 69.68047 | 18.90980 | 33 ft | 0 kts | 283° |
| 2026-04-20 07:29 | 69.68042 | 18.91032 | 33 ft | 9 kts | 283° |
| 2026-04-20 07:30 | 69.68041 | 18.91052 | 33 ft | 0 kts | 283° |
| 2026-04-20 07:33 | 69.68041 | 18.91051 | 33 ft | 1 kts | 283° |
| 2026-04-20 07:33 | 69.68051 | 18.91076 | 33 ft | 8 kts | 99° |
| 2026-04-20 07:34 | 69.68075 | 18.91395 | 29 ft | 17 kts | 79° |
| 2026-04-20 07:34 | 69.68054 | 18.91683 | 29 ft | 5 kts | 109° |
| 2026-04-20 07:34 | 69.68045 | 18.91697 | 29 ft | 0 kts | 193° |
| 2026-04-20 07:35 | 69.68028 | 18.91685 | 30 ft | 27 kts | 194° |
| 2026-04-20 07:35 | 69.67446 | 18.91295 | 46 ft | 130 kts | 193° |
| 2026-04-20 07:35 | 69.66463 | 18.90723 | 542 ft | 154 kts | 191° |
| 2026-04-20 07:35 | 69.65382 | 18.90210 | 1233 ft | 161 kts | 192° |
| 2026-04-20 07:36 | 69.64266 | 18.89585 | 1966 ft | 172 kts | 193° |
| 2026-04-20 07:36 | 69.63052 | 18.88846 | 2579 ft | 181 kts | 192° |
| 2026-04-20 07:36 | 69.61794 | 18.88343 | 3321 ft | 183 kts | 189° |
| 2026-04-20 07:36 | 69.60515 | 18.87947 | 4050 ft | 185 kts | 189° |
| 2026-04-20 07:37 | 69.59219 | 18.87642 | 4795 ft | 189 kts | 184° |
| 2026-04-20 07:37 | 69.57962 | 18.88779 | 5507 ft | 201 kts | 145° |
| 2026-04-20 07:37 | 69.57174 | 18.92165 | 6242 ft | 207 kts | 104° |
| 2026-04-20 07:37 | 69.56928 | 18.96175 | 6989 ft | 209 kts | 96° |
| 2026-04-20 07:38 | 69.56728 | 19.00227 | 7717 ft | 212 kts | 96° |
| 2026-04-20 07:38 | 69.56512 | 19.04450 | 8472 ft | 213 kts | 96° |
| 2026-04-20 07:38 | 69.56290 | 19.08657 | 9241 ft | 214 kts | 96° |
| 2026-04-20 07:38 | 69.56063 | 19.12897 | 10027 ft | 217 kts | 96° |
| 2026-04-20 07:39 | 69.55830 | 19.17176 | 10773 ft | 219 kts | 97° |
| 2026-04-20 07:39 | 69.55610 | 19.21588 | 11368 ft | 231 kts | 92° |
| 2026-04-20 07:39 | 69.55677 | 19.26272 | 11901 ft | 240 kts | 81° |
| 2026-04-20 07:39 | 69.55898 | 19.31086 | 12426 ft | 248 kts | 79° |
| 2026-04-20 07:40 | 69.56151 | 19.35987 | 12953 ft | 256 kts | 79° |
| 2026-04-20 07:40 | 69.56418 | 19.41055 | 13492 ft | 260 kts | 79° |
| 2026-04-20 07:40 | 69.56698 | 19.46237 | 14045 ft | 265 kts | 79° |
| 2026-04-20 07:40 | 69.56991 | 19.51495 | 14558 ft | 270 kts | 79° |
| 2026-04-20 07:41 | 69.57287 | 19.56828 | 15048 ft | 273 kts | 79° |
| 2026-04-20 07:41 | 69.57585 | 19.62245 | 15541 ft | 277 kts | 79° |
| 2026-04-20 07:41 | 69.57881 | 19.67716 | 16036 ft | 278 kts | 79° |
| 2026-04-20 07:41 | 69.58175 | 19.73232 | 16544 ft | 281 kts | 79° |
| 2026-04-20 07:42 | 69.58475 | 19.78806 | 17052 ft | 285 kts | 79° |
| 2026-04-20 07:42 | 69.58778 | 19.84466 | 17562 ft | 289 kts | 79° |
| 2026-04-20 07:42 | 69.59082 | 19.90173 | 18078 ft | 291 kts | 79° |
| 2026-04-20 07:42 | 69.59387 | 19.95945 | 18598 ft | 294 kts | 79° |
| 2026-04-20 07:43 | 69.59694 | 20.01789 | 19065 ft | 298 kts | 79° |
| 2026-04-20 07:43 | 69.60003 | 20.07687 | 19503 ft | 300 kts | 79° |
| 2026-04-20 07:43 | 69.60310 | 20.13536 | 19955 ft | 302 kts | 79° |
| 2026-04-20 07:43 | 69.60626 | 20.19524 | 20421 ft | 304 kts | 79° |
| 2026-04-20 07:44 | 69.60944 | 20.25557 | 20882 ft | 307 kts | 80° |
| 2026-04-20 07:44 | 69.61263 | 20.31623 | 21360 ft | 309 kts | 80° |
| 2026-04-20 07:44 | 69.61587 | 20.37772 | 21839 ft | 312 kts | 80° |
| 2026-04-20 07:44 | 69.61913 | 20.43983 | 22326 ft | 315 kts | 80° |
| 2026-04-20 07:45 | 69.62236 | 20.50149 | 22815 ft | 318 kts | 80° |
| 2026-04-20 07:45 | 69.62565 | 20.56457 | 23293 ft | 322 kts | 80° |
| 2026-04-20 07:45 | 69.62905 | 20.62964 | 23406 ft | 336 kts | 80° |
| 2026-04-20 07:45 | 69.63262 | 20.69752 | 23422 ft | 349 kts | 80° |
| 2026-04-20 07:46 | 69.63630 | 20.76727 | 23432 ft | 358 kts | 80° |
| 2026-04-20 07:46 | 69.64009 | 20.83848 | 23427 ft | 364 kts | 80° |
| 2026-04-20 07:46 | 69.64395 | 20.91063 | 23444 ft | 367 kts | 79° |
| 2026-04-20 07:46 | 69.64777 | 20.98335 | 23420 ft | 368 kts | 80° |
| 2026-04-20 07:47 | 69.65152 | 21.05605 | 23419 ft | 368 kts | 80° |
| 2026-04-20 07:47 | 69.65443 | 21.11288 | 23417 ft | 367 kts | 79° |
| 2026-04-20 07:47 | 69.65818 | 21.18444 | 23410 ft | 367 kts | 79° |
| 2026-04-20 07:47 | 69.66203 | 21.25707 | 23411 ft | 367 kts | 79° |
| 2026-04-20 07:48 | 69.66591 | 21.32999 | 23411 ft | 367 kts | 79° |
| 2026-04-20 07:48 | 69.66981 | 21.40268 | 23406 ft | 367 kts | 79° |
| 2026-04-20 07:48 | 69.67368 | 21.47539 | 23402 ft | 368 kts | 79° |
| 2026-04-20 07:48 | 69.67752 | 21.54826 | 23406 ft | 368 kts | 79° |
| 2026-04-20 07:49 | 69.68130 | 21.62008 | 23414 ft | 368 kts | 79° |
| 2026-04-20 07:49 | 69.68504 | 21.69179 | 23401 ft | 367 kts | 79° |
| 2026-04-20 07:49 | 69.68877 | 21.76452 | 23397 ft | 368 kts | 80° |
| 2026-04-20 07:49 | 69.69250 | 21.83750 | 23400 ft | 368 kts | 80° |
| 2026-04-20 07:50 | 69.70499 | 22.08362 | 23404 ft | 367 kts | 80° |
| 2026-04-20 07:50 | 69.71658 | 22.31695 | 23408 ft | 367 kts | 80° |
| 2026-04-20 07:50 | 69.72121 | 22.41346 | 23404 ft | 367 kts | 80° |
| 2026-04-20 07:50 | 69.72466 | 22.48670 | 23405 ft | 367 kts | 80° |
| 2026-04-20 07:51 | 69.72806 | 22.55973 | 23404 ft | 367 kts | 80° |
| 2026-04-20 07:51 | 69.73142 | 22.63208 | 23396 ft | 367 kts | 80° |
| 2026-04-20 07:51 | 69.73480 | 22.70531 | 23404 ft | 367 kts | 81° |
| 2026-04-20 07:51 | 69.74705 | 22.97570 | 23395 ft | 367 kts | 81° |
| 2026-04-20 07:52 | 69.75999 | 23.26921 | 23407 ft | 367 kts | 81° |
| 2026-04-20 07:52 | 69.77240 | 23.56130 | 23400 ft | 365 kts | 81° |
| 2026-04-20 07:52 | 69.78416 | 23.85298 | 23402 ft | 365 kts | 81° |
| 2026-04-20 07:52 | 69.79530 | 24.14137 | 23403 ft | 365 kts | 82° |
| 2026-04-20 07:53 | 69.80437 | 24.43501 | 23393 ft | 367 kts | 89° |
| 2026-04-20 07:53 | 69.79908 | 24.73016 | 23391 ft | 367 kts | 92° |
| 2026-04-20 07:53 | 69.79177 | 25.02515 | 23392 ft | 367 kts | 93° |
| 2026-04-20 07:53 | 69.78409 | 25.32024 | 23390 ft | 367 kts | 93° |
| 2026-04-20 07:54 | 69.77614 | 25.61474 | 23381 ft | 367 kts | 93° |
| 2026-04-20 07:54 | 69.76774 | 25.90885 | 23388 ft | 367 kts | 93° |
| 2026-04-20 07:54 | 69.75856 | 26.20288 | 23400 ft | 367 kts | 94° |
| 2026-04-20 07:54 | 69.74920 | 26.49305 | 23392 ft | 367 kts | 94° |
| 2026-04-20 07:55 | 69.73953 | 26.78579 | 23392 ft | 367 kts | 94° |
| 2026-04-20 07:55 | 69.72905 | 27.07906 | 23384 ft | 366 kts | 94° |
| 2026-04-20 07:55 | 69.72173 | 27.27276 | 23385 ft | 366 kts | 94° |
| 2026-04-20 07:55 | 69.71039 | 27.56564 | 23380 ft | 366 kts | 94° |
| 2026-04-20 07:56 | 69.69963 | 27.83517 | 23389 ft | 366 kts | 95° |
| 2026-04-20 07:56 | 69.69668 | 27.90809 | 23386 ft | 366 kts | 95° |
| 2026-04-20 07:56 | 69.69368 | 27.98110 | 22967 ft | 365 kts | 94° |
| 2026-04-20 07:56 | 69.68467 | 28.18971 | 20717 ft | 351 kts | 95° |
| 2026-04-20 07:57 | 69.67264 | 28.45854 | 17769 ft | 334 kts | 95° |
| 2026-04-20 07:57 | 69.66079 | 28.71269 | 14744 ft | 294 kts | 95° |
| 2026-04-20 07:57 | 69.65652 | 28.92602 | 11449 ft | 248 kts | 82° |
| 2026-04-20 07:57 | 69.65879 | 29.00017 | 10270 ft | 239 kts | 82° |
| 2026-04-20 07:58 | 69.66030 | 29.04574 | 9839 ft | 221 kts | 82° |
| 2026-04-20 07:58 | 69.66172 | 29.08937 | 9200 ft | 216 kts | 81° |
| 2026-04-20 07:58 | 69.66307 | 29.13216 | 8593 ft | 213 kts | 81° |
| 2026-04-20 07:58 | 69.66614 | 29.22492 | 7902 ft | 234 kts | 81° |
| 2026-04-20 07:59 | 69.67294 | 29.42057 | 6468 ft | 256 kts | 82° |
| 2026-04-20 07:59 | 69.67622 | 29.50488 | 5686 ft | 256 kts | 76° |
| 2026-04-20 07:59 | 69.68064 | 29.55189 | 5085 ft | 224 kts | 70° |
| 2026-04-20 07:59 | 69.68509 | 29.59219 | 4449 ft | 200 kts | 68° |
| 2026-04-20 08:00 | 69.68960 | 29.62839 | 3900 ft | 184 kts | 65° |
| 2026-04-20 08:00 | 69.69411 | 29.66110 | 3364 ft | 171 kts | 63° |
| 2026-04-20 08:00 | 69.69861 | 29.69241 | 2809 ft | 164 kts | 63° |
| 2026-04-20 08:00 | 69.70266 | 29.72124 | 2469 ft | 152 kts | 64° |
| 2026-04-20 08:01 | 69.70643 | 29.74880 | 2114 ft | 149 kts | 64° |
| 2026-04-20 08:01 | 69.71672 | 29.82263 | 1047 ft | 166 kts | 66° |
| 2026-04-20 08:01 | 69.72078 | 29.85328 | 577 ft | 159 kts | 71° |
| 2026-04-20 08:01 | 69.72441 | 29.88200 | 268 ft | 108 kts | 71° |
| 2026-04-20 08:02 | 69.72543 | 29.89144 | 270 ft | 17 kts | 85° |
| 2026-04-20 08:02 | 69.72548 | 29.89045 | 271 ft | 13 kts | 242° |